createdAt,value
2017-02-05T00:00:50.959Z,931.6
2017-02-05T00:01:59.048Z,931.7
2017-02-05T00:03:07.134Z,931.6
2017-02-05T00:04:15.414Z,931.7
2017-02-05T00:05:23.311Z,931.7
2017-02-05T00:06:31.401Z,931.8
2017-02-05T00:07:39.491Z,931.7
2017-02-05T00:08:47.639Z,931.8
2017-02-05T00:09:55.727Z,931.8
2017-02-05T00:11:03.766Z,931.8
2017-02-05T00:12:11.854Z,931.8
2017-02-05T00:13:19.943Z,931.8
2017-02-05T00:14:28.107Z,931.7
2017-02-05T00:15:36.221Z,931.8
2017-02-05T00:16:44.212Z,931.7
2017-02-05T00:17:52.298Z,931.6
2017-02-05T00:19:00.462Z,931.6
2017-02-05T00:20:08.644Z,931.6
2017-02-05T00:21:16.687Z,931.6
2017-02-05T00:22:24.661Z,931.6
2017-02-05T00:23:32.745Z,931.6
2017-02-05T00:24:40.892Z,931.6
2017-02-05T00:25:48.942Z,931.5
2017-02-05T00:26:57.066Z,931.5
2017-02-05T00:28:05.105Z,931.5
2017-02-05T00:29:13.194Z,931.5
2017-02-05T00:30:21.432Z,931.5
2017-02-05T00:31:29.373Z,931.5
2017-02-05T00:32:37.584Z,931.4
2017-02-05T00:33:45.553Z,931.4
2017-02-05T00:34:53.641Z,931.4
2017-02-05T00:36:01.727Z,931.4
2017-02-05T00:37:09.830Z,931.4
2017-02-05T00:38:17.982Z,931.4
2017-02-05T00:39:26.021Z,931.3
2017-02-05T00:40:34.238Z,931.3
2017-02-05T00:41:42.220Z,931.3
2017-02-05T00:42:50.290Z,931.3
2017-02-05T00:43:58.444Z,931.2
2017-02-05T00:45:06.477Z,931.3
2017-02-05T00:46:14.708Z,931.2
2017-02-05T00:47:22.652Z,931.2
2017-02-05T00:48:30.742Z,931.2
2017-02-05T00:49:38.956Z,931.2
2017-02-05T00:50:46.920Z,931.2
2017-02-05T00:51:55.015Z,931.2
2017-02-05T00:53:03.100Z,931.1
2017-02-05T00:54:11.187Z,931.1
2017-02-05T00:55:19.331Z,931.1
2017-02-05T00:56:27.425Z,931.1
2017-02-05T00:57:35.459Z,931.1
2017-02-05T00:58:43.546Z,931.1
2017-02-05T00:59:51.635Z,931.0
2017-02-05T01:00:59.843Z,931.0
2017-02-05T01:02:07.806Z,931.0
2017-02-05T01:03:15.900Z,931.0
2017-02-05T01:04:23.991Z,931.0
2017-02-05T01:05:32.086Z,931.0
2017-02-05T01:06:40.228Z,931.0
2017-02-05T01:07:48.312Z,931.1
2017-02-05T01:08:56.355Z,931.1
2017-02-05T01:10:04.442Z,931.1
2017-02-05T01:11:12.533Z,931.1
2017-02-05T01:12:20.685Z,931.1
2017-02-05T01:13:28.719Z,931.1
2017-02-05T01:14:36.801Z,931.1
2017-02-05T01:15:44.895Z,931.1
2017-02-05T01:16:52.992Z,931.2
2017-02-05T01:18:01.246Z,931.2
2017-02-05T01:19:09.182Z,931.2
2017-02-05T01:20:17.250Z,931.2
2017-02-05T01:21:25.342Z,931.2
2017-02-05T01:22:33.597Z,931.2
2017-02-05T01:23:41.766Z,931.2
2017-02-05T01:24:49.609Z,931.3
2017-02-05T01:25:57.701Z,931.3
2017-02-05T01:27:05.834Z,931.3
2017-02-05T01:28:14.008Z,931.3
2017-02-05T01:29:22.053Z,931.3
2017-02-05T01:30:30.065Z,931.2
2017-02-05T01:31:38.164Z,931.2
2017-02-05T01:32:46.252Z,931.2
2017-02-05T01:33:54.357Z,931.3
2017-02-05T01:35:02.483Z,931.2
2017-02-05T01:36:10.515Z,931.3
2017-02-05T01:37:18.609Z,931.3
2017-02-05T01:38:26.692Z,931.2
2017-02-05T01:39:34.789Z,931.3
2017-02-05T01:40:43.044Z,931.2
2017-02-05T01:41:50.964Z,931.3
2017-02-05T01:42:59.057Z,931.3
2017-02-05T01:44:07.278Z,931.2
2017-02-05T01:45:15.290Z,931.2
2017-02-05T01:46:23.389Z,931.2
2017-02-05T01:47:31.428Z,931.3
2017-02-05T01:48:39.516Z,931.3
2017-02-05T01:49:47.772Z,931.2
2017-02-05T01:50:55.695Z,931.2
2017-02-05T01:52:03.840Z,931.2
2017-02-05T01:53:11.868Z,931.1
2017-02-05T01:54:19.958Z,931.1
2017-02-05T01:55:28.051Z,931.0
2017-02-05T01:56:36.140Z,931.0
2017-02-05T01:57:44.358Z,931.1
2017-02-05T01:58:52.327Z,931.1
2017-02-05T02:00:00.891Z,931.1
2017-02-05T02:01:08.660Z,931.0
2017-02-05T02:02:16.585Z,931.0
2017-02-05T02:03:24.733Z,931.0
2017-02-05T02:04:32.767Z,931.0
2017-02-05T02:05:40.851Z,931.0
2017-02-05T02:06:48.945Z,931.0
2017-02-05T02:07:57.032Z,931.0
2017-02-05T02:09:05.180Z,931.0
2017-02-05T02:10:13.207Z,931.0
2017-02-05T02:11:21.302Z,931.0
2017-02-05T02:12:29.401Z,931.0
2017-02-05T02:13:37.478Z,931.0
2017-02-05T02:14:45.628Z,931.0
2017-02-05T02:15:53.721Z,930.9
2017-02-05T02:17:01.747Z,930.9
2017-02-05T02:18:09.829Z,930.8
2017-02-05T02:19:17.922Z,930.8
2017-02-05T02:20:26.135Z,930.8
2017-02-05T02:21:34.199Z,930.8
2017-02-05T02:22:42.270Z,930.8
2017-02-05T02:23:50.279Z,930.8
2017-02-05T02:24:58.365Z,930.7
2017-02-05T02:26:06.511Z,930.7
2017-02-05T02:27:14.547Z,930.7
2017-02-05T02:28:22.633Z,930.7
2017-02-05T02:29:30.725Z,930.7
2017-02-05T02:30:38.867Z,930.6
2017-02-05T02:31:47.023Z,930.6
2017-02-05T02:32:55.089Z,930.6
2017-02-05T02:34:03.076Z,930.6
2017-02-05T02:35:11.171Z,930.6
2017-02-05T02:36:19.259Z,930.6
2017-02-05T02:37:27.469Z,930.6
2017-02-05T02:38:35.439Z,930.6
2017-02-05T02:39:43.528Z,930.6
2017-02-05T02:40:51.629Z,930.5
2017-02-05T02:41:59.718Z,930.5
2017-02-05T02:43:07.934Z,930.5
2017-02-05T02:44:15.969Z,930.4
2017-02-05T02:45:23.978Z,930.4
2017-02-05T02:46:32.084Z,930.4
2017-02-05T02:47:40.231Z,930.4
2017-02-05T02:48:48.570Z,930.4
2017-02-05T02:49:56.350Z,930.4
2017-02-05T02:51:04.445Z,930.4
2017-02-05T02:52:12.528Z,930.4
2017-02-05T02:53:20.614Z,930.4
2017-02-05T02:54:28.774Z,930.4
2017-02-05T02:55:36.794Z,930.4
2017-02-05T02:56:44.875Z,930.4
2017-02-05T02:57:52.970Z,930.4
2017-02-05T02:59:01.236Z,930.3
2017-02-05T03:00:09.202Z,930.3
2017-02-05T03:01:17.233Z,930.3
2017-02-05T03:02:25.324Z,930.3
2017-02-05T03:03:33.532Z,930.3
2017-02-05T03:04:41.496Z,930.3
2017-02-05T03:05:49.645Z,930.3
2017-02-05T03:06:57.675Z,930.3
2017-02-05T03:08:05.770Z,930.3
2017-02-05T03:09:13.855Z,930.3
2017-02-05T03:10:22.023Z,930.3
2017-02-05T03:11:30.093Z,930.3
2017-02-05T03:12:38.129Z,930.4
2017-02-05T03:13:46.222Z,930.3
2017-02-05T03:14:54.400Z,930.3
2017-02-05T03:16:02.393Z,930.3
2017-02-05T03:17:10.606Z,930.3
2017-02-05T03:18:18.586Z,930.2
2017-02-05T03:19:26.728Z,930.2
2017-02-05T03:20:34.768Z,930.2
2017-02-05T03:21:42.847Z,930.2
2017-02-05T03:22:50.996Z,930.2
2017-02-05T03:23:59.035Z,930.2
2017-02-05T03:25:07.239Z,930.1
2017-02-05T03:26:15.312Z,930.1
2017-02-05T03:27:23.295Z,930.1
2017-02-05T03:28:31.510Z,930.1
2017-02-05T03:29:39.482Z,930.1
2017-02-05T03:30:47.572Z,930.1
2017-02-05T03:31:55.664Z,930.0
2017-02-05T03:33:03.740Z,930.0
2017-02-05T03:34:11.888Z,930.1
2017-02-05T03:35:19.981Z,930.1
2017-02-05T03:36:28.151Z,930.1
2017-02-05T03:37:36.097Z,930.1
2017-02-05T03:38:44.195Z,930.1
2017-02-05T03:39:52.343Z,930.1
2017-02-05T03:41:00.369Z,930.1
2017-02-05T03:42:08.466Z,930.1
2017-02-05T03:43:16.552Z,930.1
2017-02-05T03:44:24.636Z,930.1
2017-02-05T03:45:32.842Z,930.1
2017-02-05T03:46:40.923Z,930.1
2017-02-05T03:47:49.005Z,930.1
2017-02-05T03:48:56.992Z,930.0
2017-02-05T03:50:05.084Z,930.0
2017-02-05T03:51:13.292Z,930.0
2017-02-05T03:52:21.259Z,930.1
2017-02-05T03:53:29.350Z,930.1
2017-02-05T03:54:37.437Z,930.1
2017-02-05T03:55:45.521Z,930.1
2017-02-05T03:56:53.667Z,930.0
2017-02-05T03:58:01.717Z,930.0
2017-02-05T03:59:09.785Z,930.0
2017-02-05T04:00:17.871Z,930.0
2017-02-05T04:01:25.961Z,930.0
2017-02-05T04:02:34.281Z,930.0
2017-02-05T04:03:42.134Z,930.0
2017-02-05T04:04:50.224Z,930.0
2017-02-05T04:05:58.311Z,930.0
2017-02-05T04:07:06.518Z,930.0
2017-02-05T04:08:14.538Z,930.0
2017-02-05T04:09:22.572Z,930.0
2017-02-05T04:10:30.663Z,930.0
2017-02-05T04:11:38.745Z,930.1
2017-02-05T04:12:46.849Z,930.0
2017-02-05T04:13:55.084Z,930.1
2017-02-05T04:15:03.009Z,930.0
2017-02-05T04:16:11.101Z,930.0
2017-02-05T04:17:19.197Z,930.0
2017-02-05T04:18:27.279Z,929.9
2017-02-05T04:19:35.423Z,930.0
2017-02-05T04:20:43.462Z,930.0
2017-02-05T04:21:51.547Z,929.9
2017-02-05T04:22:59.759Z,929.9
2017-02-05T04:24:07.756Z,929.9
2017-02-05T04:25:15.935Z,929.9
2017-02-05T04:26:23.907Z,929.9
2017-02-05T04:27:31.990Z,929.9
2017-02-05T04:28:40.236Z,929.9
2017-02-05T04:29:48.216Z,929.9
2017-02-05T04:30:56.314Z,929.8
2017-02-05T04:32:04.343Z,929.8
2017-02-05T04:33:12.433Z,929.8
2017-02-05T04:34:20.519Z,929.8
2017-02-05T04:35:28.607Z,929.8
2017-02-05T04:36:36.817Z,929.9
2017-02-05T04:37:44.780Z,929.8
2017-02-05T04:38:52.926Z,929.8
2017-02-05T04:40:01.010Z,929.8
2017-02-05T04:41:09.051Z,929.8
2017-02-05T04:42:17.195Z,929.8
2017-02-05T04:43:25.223Z,929.7
2017-02-05T04:44:33.403Z,929.7
2017-02-05T04:45:41.400Z,929.6
2017-02-05T04:46:49.498Z,929.6
2017-02-05T04:47:57.702Z,929.6
2017-02-05T04:49:05.671Z,929.5
2017-02-05T04:50:13.805Z,929.5
2017-02-05T04:51:21.884Z,929.5
2017-02-05T04:52:29.933Z,929.5
2017-02-05T04:53:38.073Z,929.5
2017-02-05T04:54:46.162Z,929.5
2017-02-05T04:55:54.374Z,929.5
2017-02-05T04:57:02.287Z,929.5
2017-02-05T04:58:10.371Z,929.4
2017-02-05T04:59:18.589Z,929.4
2017-02-05T05:00:26.549Z,929.4
2017-02-05T05:01:34.657Z,929.4
2017-02-05T05:02:42.721Z,929.4
2017-02-05T05:03:50.810Z,929.4
2017-02-05T05:04:58.958Z,929.3
2017-02-05T05:06:07.181Z,929.3
2017-02-05T05:07:15.074Z,929.3
2017-02-05T05:08:23.160Z,929.3
2017-02-05T05:09:31.251Z,929.2
2017-02-05T05:10:39.458Z,929.2
2017-02-05T05:11:47.424Z,929.2
2017-02-05T05:12:55.509Z,929.2
2017-02-05T05:14:03.596Z,929.1
2017-02-05T05:15:11.677Z,929.1
2017-02-05T05:16:19.973Z,929.1
2017-02-05T05:17:28.005Z,929.1
2017-02-05T05:18:35.937Z,929.2
2017-02-05T05:19:44.028Z,929.1
2017-02-05T05:20:52.119Z,929.1
2017-02-05T05:22:00.259Z,929.1
2017-02-05T05:23:08.286Z,929.0
2017-02-05T05:24:16.376Z,929.0
2017-02-05T05:25:24.462Z,929.0
2017-02-05T05:26:32.666Z,929.0
2017-02-05T05:27:40.789Z,929.0
2017-02-05T05:28:48.721Z,928.9
2017-02-05T05:29:56.810Z,928.9
2017-02-05T05:31:04.897Z,928.9
2017-02-05T05:32:12.987Z,928.9
2017-02-05T05:33:21.131Z,928.8
2017-02-05T05:34:29.159Z,928.8
2017-02-05T05:35:37.248Z,928.9
2017-02-05T05:36:45.335Z,928.9
2017-02-05T05:37:53.422Z,928.9
2017-02-05T05:39:01.566Z,928.9
2017-02-05T05:40:09.598Z,928.9
2017-02-05T05:41:17.683Z,928.8
2017-02-05T05:42:25.892Z,928.8
2017-02-05T05:43:34.029Z,928.8
2017-02-05T05:44:42.008Z,928.7
2017-02-05T05:45:50.044Z,928.7
2017-02-05T05:46:58.126Z,928.7
2017-02-05T05:48:06.221Z,928.7
2017-02-05T05:49:14.302Z,928.7
2017-02-05T05:50:22.443Z,928.7
2017-02-05T05:51:30.480Z,928.7
2017-02-05T05:52:38.563Z,928.7
2017-02-05T05:53:46.727Z,928.7
2017-02-05T05:54:54.791Z,928.7
2017-02-05T05:56:02.950Z,928.7
2017-02-05T05:57:10.917Z,928.7
2017-02-05T05:58:19.241Z,928.7
2017-02-05T05:59:27.253Z,928.7
2017-02-05T06:00:35.175Z,928.7
2017-02-05T06:01:43.314Z,928.6
2017-02-05T06:02:51.343Z,928.6
2017-02-05T06:03:59.432Z,928.6
2017-02-05T06:05:07.514Z,928.5
2017-02-05T06:06:15.616Z,928.5
2017-02-05T06:07:23.826Z,928.5
2017-02-05T06:08:31.789Z,928.5
2017-02-05T06:09:39.875Z,928.4
2017-02-05T06:10:47.972Z,928.4
2017-02-05T06:11:56.051Z,928.4
2017-02-05T06:13:04.197Z,928.4
2017-02-05T06:14:12.339Z,928.4
2017-02-05T06:15:20.311Z,928.4
2017-02-05T06:16:28.394Z,928.4
2017-02-05T06:17:36.477Z,928.4
2017-02-05T06:18:44.622Z,928.4
2017-02-05T06:19:52.656Z,928.5
2017-02-05T06:21:00.945Z,928.5
2017-02-05T06:22:08.829Z,928.5
2017-02-05T06:23:16.921Z,928.5
2017-02-05T06:24:25.061Z,928.5
2017-02-05T06:25:33.093Z,928.5
2017-02-05T06:26:41.223Z,928.5
2017-02-05T06:27:49.267Z,928.5
2017-02-05T06:28:57.351Z,928.5
2017-02-05T06:30:05.492Z,928.6
2017-02-05T06:31:13.693Z,928.5
2017-02-05T06:32:21.613Z,928.5
2017-02-05T06:33:29.695Z,928.5
2017-02-05T06:34:37.787Z,928.5
2017-02-05T06:35:45.926Z,928.5
2017-02-05T06:36:53.987Z,928.5
2017-02-05T06:38:02.045Z,928.5
2017-02-05T06:39:10.128Z,928.5
2017-02-05T06:40:18.216Z,928.5
2017-02-05T06:41:26.508Z,928.5
2017-02-05T06:42:34.454Z,928.4
2017-02-05T06:43:42.479Z,928.5
2017-02-05T06:44:50.564Z,928.4
2017-02-05T06:45:58.700Z,928.4
2017-02-05T06:47:06.790Z,928.4
2017-02-05T06:48:14.819Z,928.3
2017-02-05T06:49:22.909Z,928.3
2017-02-05T06:50:30.999Z,928.2
2017-02-05T06:51:39.087Z,928.2
2017-02-05T06:52:47.434Z,928.2
2017-02-05T06:53:55.249Z,928.1
2017-02-05T06:55:03.339Z,928.2
2017-02-05T06:56:11.425Z,928.1
2017-02-05T06:57:19.505Z,928.1
2017-02-05T06:58:27.721Z,928.1
2017-02-05T06:59:35.679Z,928.1
2017-02-05T07:00:43.766Z,928.0
2017-02-05T07:01:51.970Z,928.0
2017-02-05T07:02:59.941Z,928.0
2017-02-05T07:04:08.185Z,928.0
2017-02-05T07:05:16.116Z,928.0
2017-02-05T07:06:24.204Z,927.9
2017-02-05T07:07:32.289Z,927.9
2017-02-05T07:08:40.375Z,927.9
2017-02-05T07:09:48.575Z,927.9
2017-02-05T07:10:56.547Z,927.9
2017-02-05T07:12:04.629Z,927.9
2017-02-05T07:13:12.712Z,927.9
2017-02-05T07:14:20.843Z,927.8
2017-02-05T07:15:29.028Z,927.8
2017-02-05T07:16:36.967Z,927.8
2017-02-05T07:17:45.117Z,927.8
2017-02-05T07:18:53.312Z,927.8
2017-02-05T07:20:01.403Z,927.8
2017-02-05T07:21:09.435Z,927.7
2017-02-05T07:22:17.402Z,927.7
2017-02-05T07:23:25.492Z,927.7
2017-02-05T07:24:33.782Z,927.7
2017-02-05T07:25:41.984Z,927.7
2017-02-05T07:26:49.870Z,927.7
2017-02-05T07:27:57.830Z,927.7
2017-02-05T07:29:05.917Z,927.7
2017-02-05T07:30:14.007Z,927.7
2017-02-05T07:31:22.091Z,927.8
2017-02-05T07:32:30.294Z,927.8
2017-02-05T07:33:38.318Z,927.8
2017-02-05T07:34:46.349Z,927.8
2017-02-05T07:35:54.433Z,927.8
2017-02-05T07:37:02.525Z,927.8
2017-02-05T07:38:10.733Z,927.8
2017-02-05T07:39:18.694Z,927.8
2017-02-05T07:40:26.773Z,927.7
2017-02-05T07:41:34.863Z,927.8
2017-02-05T07:42:42.948Z,927.8
2017-02-05T07:43:51.095Z,927.7
2017-02-05T07:44:59.122Z,927.7
2017-02-05T07:46:07.213Z,927.7
2017-02-05T07:47:15.310Z,927.7
2017-02-05T07:48:23.383Z,927.7
2017-02-05T07:49:31.591Z,927.7
2017-02-05T07:50:39.553Z,927.7
2017-02-05T07:51:47.638Z,927.7
2017-02-05T07:52:55.724Z,927.6
2017-02-05T07:54:03.814Z,927.6
2017-02-05T07:55:11.957Z,927.7
2017-02-05T07:56:19.987Z,927.7
2017-02-05T07:57:28.141Z,927.6
2017-02-05T07:58:36.211Z,927.6
2017-02-05T07:59:44.249Z,927.6
2017-02-05T08:00:52.452Z,927.6
2017-02-05T08:02:00.421Z,927.6
2017-02-05T08:03:08.691Z,927.6
2017-02-05T08:04:16.591Z,927.5
2017-02-05T08:05:24.739Z,927.5
2017-02-05T08:06:32.889Z,927.5
2017-02-05T08:07:40.850Z,927.5
2017-02-05T08:08:48.965Z,927.5
2017-02-05T08:09:57.294Z,927.4
2017-02-05T08:11:05.113Z,927.4
2017-02-05T08:12:13.252Z,927.3
2017-02-05T08:13:21.443Z,927.3
2017-02-05T08:14:29.374Z,927.3
2017-02-05T08:15:37.459Z,927.3
2017-02-05T08:16:45.547Z,927.3
2017-02-05T08:17:53.694Z,927.3
2017-02-05T08:19:01.726Z,927.3
2017-02-05T08:20:09.803Z,927.3
2017-02-05T08:21:18.018Z,927.4
2017-02-05T08:22:25.997Z,927.4
2017-02-05T08:23:34.138Z,927.3
2017-02-05T08:24:42.246Z,927.3
2017-02-05T08:25:50.251Z,927.4
2017-02-05T08:26:58.338Z,927.3
2017-02-05T08:28:06.426Z,927.3
2017-02-05T08:29:14.771Z,927.3
2017-02-05T08:30:22.605Z,927.3
2017-02-05T08:31:30.691Z,927.3
2017-02-05T08:32:38.780Z,927.3
2017-02-05T08:33:46.865Z,927.3
2017-02-05T08:34:55.014Z,927.2
2017-02-05T08:36:03.038Z,927.3
2017-02-05T08:37:11.250Z,927.3
2017-02-05T08:38:19.216Z,927.3
2017-02-05T08:39:27.318Z,927.3
2017-02-05T08:40:35.461Z,927.3
2017-02-05T08:41:43.479Z,927.3
2017-02-05T08:42:51.558Z,927.3
2017-02-05T08:43:59.650Z,927.3
2017-02-05T08:45:07.738Z,927.2
2017-02-05T08:46:15.883Z,927.3
2017-02-05T08:47:23.909Z,927.3
2017-02-05T08:48:32.007Z,927.2
2017-02-05T08:49:40.093Z,927.2
2017-02-05T08:50:48.281Z,927.1
2017-02-05T08:51:56.383Z,927.1
2017-02-05T08:53:04.405Z,927.2
2017-02-05T08:54:12.442Z,927.2
2017-02-05T08:55:20.520Z,927.2
2017-02-05T08:56:28.614Z,927.3
2017-02-05T08:57:36.761Z,927.4
2017-02-05T08:58:44.793Z,927.4
2017-02-05T08:59:52.876Z,927.4
2017-02-05T09:01:01.054Z,927.5
2017-02-05T09:02:09.162Z,927.5
2017-02-05T09:03:17.260Z,927.6
2017-02-05T09:04:25.233Z,927.5
2017-02-05T09:05:33.316Z,927.6
2017-02-05T09:06:41.399Z,927.6
2017-02-05T09:07:49.484Z,927.6
2017-02-05T09:08:57.696Z,927.6
2017-02-05T09:10:05.660Z,927.6
2017-02-05T09:11:13.748Z,927.6
2017-02-05T09:12:21.961Z,927.7
2017-02-05T09:13:29.920Z,927.8
2017-02-05T09:14:38.253Z,927.8
2017-02-05T09:15:46.086Z,927.8
2017-02-05T09:16:54.185Z,927.8
2017-02-05T09:18:02.270Z,927.8
2017-02-05T09:19:10.357Z,927.8
2017-02-05T09:20:18.569Z,927.8
2017-02-05T09:21:26.533Z,927.9
2017-02-05T09:22:34.680Z,927.8
2017-02-05T09:23:42.768Z,927.8
2017-02-05T09:24:50.850Z,927.7
2017-02-05T09:25:59.006Z,927.7
2017-02-05T09:27:07.082Z,927.7
2017-02-05T09:28:15.258Z,927.7
2017-02-05T09:29:23.147Z,927.7
2017-02-05T09:30:31.227Z,927.7
2017-02-05T09:31:39.374Z,927.7
2017-02-05T09:32:47.409Z,927.7
2017-02-05T09:33:55.491Z,927.6
2017-02-05T09:35:03.576Z,927.6
2017-02-05T09:36:11.672Z,927.6
2017-02-05T09:37:19.890Z,927.6
2017-02-05T09:38:27.968Z,927.5
2017-02-05T09:39:35.944Z,927.5
2017-02-05T09:40:44.085Z,927.4
2017-02-05T09:41:52.118Z,927.4
2017-02-05T09:43:00.261Z,927.3
2017-02-05T09:44:08.317Z,927.2
2017-02-05T09:45:16.384Z,927.3
2017-02-05T09:46:24.470Z,927.2
2017-02-05T09:47:32.554Z,927.1
2017-02-05T09:48:40.763Z,927.1
2017-02-05T09:49:48.775Z,927.1
2017-02-05T09:50:56.813Z,927.1
2017-02-05T09:52:04.903Z,927.0
2017-02-05T09:53:12.991Z,927.0
2017-02-05T09:54:21.307Z,927.0
2017-02-05T09:55:29.166Z,927.0
2017-02-05T09:56:37.371Z,926.9
2017-02-05T09:57:45.335Z,926.9
2017-02-05T09:58:53.417Z,926.9
2017-02-05T10:00:01.567Z,926.9
2017-02-05T10:01:09.658Z,926.9
2017-02-05T10:02:17.686Z,926.9
2017-02-05T10:03:25.779Z,926.9
2017-02-05T10:04:33.871Z,926.9
2017-02-05T10:05:42.087Z,926.9
2017-02-05T10:06:50.045Z,926.9
2017-02-05T10:07:58.135Z,926.9
2017-02-05T10:09:06.224Z,926.9
2017-02-05T10:10:14.307Z,926.9
2017-02-05T10:11:22.519Z,926.9
2017-02-05T10:12:30.542Z,926.9
2017-02-05T10:13:38.572Z,926.9
2017-02-05T10:14:46.654Z,926.9
2017-02-05T10:15:54.742Z,926.8
2017-02-05T10:17:02.881Z,926.9
2017-02-05T10:18:10.919Z,926.9
2017-02-05T10:19:19.002Z,926.8
2017-02-05T10:20:27.095Z,926.8
2017-02-05T10:21:35.192Z,926.8
2017-02-05T10:22:43.314Z,926.8
2017-02-05T10:23:51.347Z,926.8
2017-02-05T10:24:59.442Z,926.8
2017-02-05T10:26:07.701Z,926.8
2017-02-05T10:27:15.789Z,926.8
2017-02-05T10:28:23.831Z,926.8
2017-02-05T10:29:31.795Z,926.8
2017-02-05T10:30:39.885Z,926.8
2017-02-05T10:31:47.977Z,926.8
2017-02-05T10:32:56.076Z,926.8
2017-02-05T10:34:04.274Z,926.7
2017-02-05T10:35:12.246Z,926.7
2017-02-05T10:36:20.334Z,926.7
2017-02-05T10:37:28.423Z,926.6
2017-02-05T10:38:36.513Z,926.6
2017-02-05T10:39:44.655Z,926.6
2017-02-05T10:40:52.681Z,926.5
2017-02-05T10:42:00.766Z,926.5
2017-02-05T10:43:08.862Z,926.5
2017-02-05T10:44:17.005Z,926.5
2017-02-05T10:45:25.090Z,926.5
2017-02-05T10:46:33.127Z,926.5
2017-02-05T10:47:41.344Z,926.5
2017-02-05T10:48:49.313Z,926.5
2017-02-05T10:49:57.397Z,926.5
2017-02-05T10:51:05.611Z,926.5
2017-02-05T10:52:13.577Z,926.4
2017-02-05T10:53:21.658Z,926.4
2017-02-05T10:54:29.749Z,926.4
2017-02-05T10:55:37.838Z,926.4
2017-02-05T10:56:46.044Z,926.3
2017-02-05T10:57:54.004Z,926.3
2017-02-05T10:59:02.126Z,926.3
2017-02-05T11:00:10.241Z,926.3
2017-02-05T11:01:18.275Z,926.3
2017-02-05T11:02:26.489Z,926.3
2017-02-05T11:03:34.614Z,926.3
2017-02-05T11:04:42.536Z,926.3
2017-02-05T11:05:50.636Z,926.2
2017-02-05T11:06:58.725Z,926.3
2017-02-05T11:08:06.875Z,926.2
2017-02-05T11:09:14.899Z,926.2
2017-02-05T11:10:22.989Z,926.2
2017-02-05T11:11:31.078Z,926.2
2017-02-05T11:12:39.164Z,926.1
2017-02-05T11:13:47.366Z,926.1
2017-02-05T11:14:55.359Z,926.1
2017-02-05T11:16:03.486Z,926.1
2017-02-05T11:17:11.519Z,926.1
2017-02-05T11:18:19.607Z,926.1
2017-02-05T11:19:27.816Z,926.0
2017-02-05T11:20:35.778Z,926.0
2017-02-05T11:21:43.869Z,926.0
2017-02-05T11:22:51.955Z,926.0
2017-02-05T11:24:00.039Z,926.0
2017-02-05T11:25:08.327Z,926.0
2017-02-05T11:26:16.295Z,926.1
2017-02-05T11:27:24.301Z,926.0
2017-02-05T11:28:32.387Z,926.1
2017-02-05T11:29:40.477Z,926.1
2017-02-05T11:30:48.627Z,926.1
2017-02-05T11:31:56.712Z,926.1
2017-02-05T11:33:04.740Z,926.1
2017-02-05T11:34:12.828Z,926.1
2017-02-05T11:35:20.917Z,926.0
2017-02-05T11:36:29.280Z,926.0
2017-02-05T11:37:37.088Z,926.0
2017-02-05T11:38:45.187Z,926.0
2017-02-05T11:39:53.274Z,926.0
2017-02-05T11:41:01.356Z,925.9
2017-02-05T11:42:09.568Z,925.9
2017-02-05T11:43:17.540Z,925.9
2017-02-05T11:44:25.627Z,925.9
2017-02-05T11:45:33.712Z,925.9
2017-02-05T11:46:41.919Z,925.9
2017-02-05T11:47:50.068Z,925.8
2017-02-05T11:48:57.976Z,925.8
2017-02-05T11:50:06.065Z,925.7
2017-02-05T11:51:14.163Z,925.7
2017-02-05T11:52:22.253Z,925.6
2017-02-05T11:53:30.398Z,925.6
2017-02-05T11:54:38.428Z,925.7
2017-02-05T11:55:46.514Z,925.7
2017-02-05T11:56:54.598Z,925.7
2017-02-05T11:58:02.754Z,925.7
2017-02-05T11:59:10.833Z,925.8
2017-02-05T12:00:18.863Z,925.8
2017-02-05T12:01:26.948Z,925.9
2017-02-05T12:02:35.143Z,925.9
2017-02-05T12:03:43.245Z,925.9
2017-02-05T12:04:51.270Z,925.9
2017-02-05T12:05:59.307Z,926.0
2017-02-05T12:07:07.391Z,926.0
2017-02-05T12:08:15.476Z,926.0
2017-02-05T12:09:23.568Z,926.0
2017-02-05T12:10:31.775Z,926.0
2017-02-05T12:11:39.743Z,926.0
2017-02-05T12:12:47.869Z,926.1
2017-02-05T12:13:56.040Z,926.0
2017-02-05T12:15:04.006Z,926.1
2017-02-05T12:16:12.217Z,926.0
2017-02-05T12:17:20.187Z,926.0
2017-02-05T12:18:28.271Z,926.0
2017-02-05T12:19:36.475Z,926.0
2017-02-05T12:20:44.447Z,926.1
2017-02-05T12:21:52.598Z,926.1
2017-02-05T12:23:00.625Z,926.1
2017-02-05T12:24:08.764Z,926.1
2017-02-05T12:25:16.795Z,926.1
2017-02-05T12:26:24.887Z,926.0
2017-02-05T12:27:33.091Z,926.0
2017-02-05T12:28:41.245Z,926.0
2017-02-05T12:29:49.233Z,926.0
2017-02-05T12:30:57.243Z,926.1
2017-02-05T12:32:05.332Z,926.2
2017-02-05T12:33:13.546Z,926.2
2017-02-05T12:34:21.510Z,926.2
2017-02-05T12:35:29.785Z,926.2
2017-02-05T12:36:37.678Z,926.2
2017-02-05T12:37:45.803Z,926.2
2017-02-05T12:38:53.984Z,926.2
2017-02-05T12:40:01.950Z,926.2
2017-02-05T12:41:10.038Z,926.2
2017-02-05T12:42:18.124Z,926.1
2017-02-05T12:43:26.208Z,926.1
2017-02-05T12:44:34.348Z,926.1
2017-02-05T12:45:42.382Z,926.1
2017-02-05T12:46:50.469Z,926.1
2017-02-05T12:47:58.565Z,926.0
2017-02-05T12:49:06.642Z,926.0
2017-02-05T12:50:14.847Z,925.9
2017-02-05T12:51:23.056Z,926.0
2017-02-05T12:52:30.897Z,926.0
2017-02-05T12:53:38.984Z,926.0
2017-02-05T12:54:47.071Z,926.0
2017-02-05T12:55:55.215Z,926.1
2017-02-05T12:57:03.250Z,926.0
2017-02-05T12:58:11.337Z,926.0
2017-02-05T12:59:19.422Z,925.9
2017-02-05T13:00:27.513Z,925.9
2017-02-05T13:01:36.431Z,925.9
2017-02-05T13:02:43.680Z,925.9
2017-02-05T13:03:51.767Z,925.9
2017-02-05T13:04:59.854Z,925.9
2017-02-05T13:06:07.944Z,925.9
2017-02-05T13:07:16.151Z,925.9
2017-02-05T13:08:24.122Z,925.9
2017-02-05T13:09:32.207Z,925.9
2017-02-05T13:10:40.291Z,925.9
2017-02-05T13:11:48.376Z,926.0
2017-02-05T13:12:56.524Z,926.0
2017-02-05T13:14:04.555Z,925.9
2017-02-05T13:15:12.650Z,925.9
2017-02-05T13:16:20.733Z,925.9
2017-02-05T13:17:28.822Z,925.9
2017-02-05T13:18:37.023Z,925.9
2017-02-05T13:19:44.995Z,925.9
2017-02-05T13:20:53.079Z,925.9
2017-02-05T13:22:01.169Z,925.9
2017-02-05T13:23:09.341Z,925.9
2017-02-05T13:24:17.458Z,925.9
2017-02-05T13:25:25.435Z,925.9
2017-02-05T13:26:33.522Z,925.9
2017-02-05T13:27:41.740Z,925.8
2017-02-05T13:28:49.695Z,925.8
2017-02-05T13:29:57.831Z,925.8
2017-02-05T13:31:05.862Z,925.7
2017-02-05T13:32:13.952Z,925.7
2017-02-05T13:33:22.039Z,925.7
2017-02-05T13:34:30.130Z,925.6
2017-02-05T13:35:38.270Z,925.7
2017-02-05T13:36:46.304Z,925.7
2017-02-05T13:37:54.395Z,925.7
2017-02-05T13:39:02.539Z,925.7
2017-02-05T13:40:10.579Z,925.8
2017-02-05T13:41:18.781Z,925.7
2017-02-05T13:42:26.743Z,925.7
2017-02-05T13:43:35.006Z,925.7
2017-02-05T13:44:42.926Z,925.6
2017-02-05T13:45:51.016Z,925.7
2017-02-05T13:46:59.176Z,925.7
2017-02-05T13:48:07.194Z,925.7
2017-02-05T13:49:15.297Z,925.7
2017-02-05T13:50:23.360Z,925.7
2017-02-05T13:51:31.449Z,925.8
2017-02-05T13:52:39.594Z,925.8
2017-02-05T13:53:47.620Z,925.8
2017-02-05T13:54:55.765Z,925.8
2017-02-05T13:56:03.795Z,925.8
2017-02-05T13:57:11.884Z,925.8
2017-02-05T13:58:20.090Z,925.8
2017-02-05T13:59:28.052Z,925.8
2017-02-05T14:00:36.168Z,925.9
2017-02-05T14:01:44.227Z,925.9
2017-02-05T14:02:52.310Z,925.9
2017-02-05T14:04:00.472Z,925.9
2017-02-05T14:05:08.684Z,925.9
2017-02-05T14:06:16.573Z,925.9
2017-02-05T14:07:24.663Z,925.9
2017-02-05T14:08:32.749Z,925.9
2017-02-05T14:09:40.892Z,925.9
2017-02-05T14:10:49.012Z,925.9
2017-02-05T14:11:57.019Z,925.8
2017-02-05T14:13:05.093Z,925.8
2017-02-05T14:14:13.176Z,925.8
2017-02-05T14:15:21.487Z,925.8
2017-02-05T14:16:29.436Z,925.8
2017-02-05T14:17:37.441Z,925.8
2017-02-05T14:18:45.528Z,925.8
2017-02-05T14:19:53.618Z,925.9
2017-02-05T14:21:01.825Z,925.8
2017-02-05T14:22:09.817Z,925.9
2017-02-05T14:23:17.881Z,925.9
2017-02-05T14:24:25.974Z,925.9
2017-02-05T14:25:34.056Z,925.9
2017-02-05T14:26:42.410Z,925.9
2017-02-05T14:27:50.229Z,925.9
2017-02-05T14:28:58.319Z,925.9
2017-02-05T14:30:06.403Z,925.9
2017-02-05T14:31:14.496Z,925.9
2017-02-05T14:32:22.640Z,925.9
2017-02-05T14:33:30.670Z,925.9
2017-02-05T14:34:38.753Z,925.9
2017-02-05T14:35:46.847Z,925.9
2017-02-05T14:36:55.097Z,926.0